sensor_id;sensor_type;location;lat;lon;timestamp;pressure;altitude;pressure_sealevel;temperature;humidity
67840;BME280;54636;51.684;5.142;2023-05-13T00:01:37;102109.69;;;13.63;100.00
67840;BME280;54636;51.684;5.142;2023-05-13T00:04:07;102103.09;;;13.55;100.00
67840;BME280;54636;51.684;5.142;2023-05-13T00:06:33;102098.84;;;13.54;100.00
67840;BME280;54636;51.684;5.142;2023-05-13T00:08:59;102091.31;;;13.49;100.00
67840;BME280;54636;51.684;5.142;2023-05-13T00:11:25;102115.78;;;13.58;100.00
67840;BME280;54636;51.684;5.142;2023-05-13T00:13:50;102105.16;;;13.60;100.00
67840;BME280;54636;51.684;5.142;2023-05-13T00:16:16;102109.56;;;13.58;100.00
67840;BME280;54636;51.684;5.142;2023-05-13T00:18:41;102110.03;;;13.56;99.52
67840;BME280;54636;51.684;5.142;2023-05-13T00:21:06;102103.38;;;13.57;98.93
67840;BME280;54636;51.684;5.142;2023-05-13T00:23:33;102085.47;;;13.41;98.77
67840;BME280;54636;51.684;5.142;2023-05-13T00:25:59;102111.91;;;13.50;98.68
67840;BME280;54636;51.684;5.142;2023-05-13T00:28:25;102109.94;;;13.50;98.76
67840;BME280;54636;51.684;5.142;2023-05-13T00:30:50;102114.84;;;13.46;98.26
67840;BME280;54636;51.684;5.142;2023-05-13T00:33:16;102089.03;;;13.33;98.18
67840;BME280;54636;51.684;5.142;2023-05-13T00:35:41;102103.72;;;13.35;97.70
67840;BME280;54636;51.684;5.142;2023-05-13T00:38:07;102086.19;;;13.27;97.28
67840;BME280;54636;51.684;5.142;2023-05-13T00:40:35;102108.34;;;13.44;96.97
67840;BME280;54636;51.684;5.142;2023-05-13T00:43:01;102117.00;;;13.42;96.69
67840;BME280;54636;51.684;5.142;2023-05-13T00:45:26;102119.44;;;13.40;96.96
67840;BME280;54636;51.684;5.142;2023-05-13T00:47:52;102117.34;;;13.35;96.44
67840;BME280;54636;51.684;5.142;2023-05-13T00:50:18;102111.13;;;13.35;95.89
67840;BME280;54636;51.684;5.142;2023-05-13T00:52:45;102098.78;;;13.25;95.30
67840;BME280;54636;51.684;5.142;2023-05-13T00:55:12;102091.06;;;13.23;93.95
67840;BME280;54636;51.684;5.142;2023-05-13T00:57:37;102114.16;;;13.37;93.50
67840;BME280;54636;51.684;5.142;2023-05-13T01:00:05;102095.31;;;13.24;93.73
67840;BME280;54636;51.684;5.142;2023-05-13T01:02:40;102106.63;;;13.32;92.69
67840;BME280;54636;51.684;5.142;2023-05-13T01:13:00;102115.84;;;13.34;92.37
67840;BME280;54636;51.684;5.142;2023-05-13T01:15:28;102114.81;;;13.32;92.24
67840;BME280;54636;51.684;5.142;2023-05-13T01:18:14;102094.59;;;13.14;92.10
67840;BME280;54636;51.684;5.142;2023-05-13T01:20:42;102109.53;;;13.28;91.97
67840;BME280;54636;51.684;5.142;2023-05-13T01:23:09;102111.41;;;13.22;91.00
67840;BME280;54636;51.684;5.142;2023-05-13T01:25:35;102091.59;;;13.12;90.68
67840;BME280;54636;51.684;5.142;2023-05-13T01:28:00;102082.72;;;13.03;90.60
67840;BME280;54636;51.684;5.142;2023-05-13T01:30:26;102092.88;;;13.02;91.69
67840;BME280;54636;51.684;5.142;2023-05-13T01:32:52;102088.56;;;12.96;90.30
67840;BME280;54636;51.684;5.142;2023-05-13T01:35:18;102109.69;;;13.01;91.96
67840;BME280;54636;51.684;5.142;2023-05-13T01:37:45;102093.59;;;12.88;91.79
67840;BME280;54636;51.684;5.142;2023-05-13T01:40:11;102119.03;;;12.94;91.50
67840;BME280;54636;51.684;5.142;2023-05-13T01:42:37;102105.56;;;12.91;92.43
67840;BME280;54636;51.684;5.142;2023-05-13T01:45:02;102115.13;;;12.86;91.54
67840;BME280;54636;51.684;5.142;2023-05-13T01:47:28;102110.31;;;12.81;92.07
67840;BME280;54636;51.684;5.142;2023-05-13T01:49:54;102108.41;;;12.72;93.20
67840;BME280;54636;51.684;5.142;2023-05-13T01:52:19;102103.44;;;12.62;93.20
67840;BME280;54636;51.684;5.142;2023-05-13T01:54:44;102097.94;;;12.47;94.19
67840;BME280;54636;51.684;5.142;2023-05-13T01:57:10;102106.72;;;12.42;94.54
67840;BME280;54636;51.684;5.142;2023-05-13T01:59:35;102116.13;;;12.41;96.54
67840;BME280;54636;51.684;5.142;2023-05-13T02:02:01;102112.41;;;12.29;96.20
67840;BME280;54636;51.684;5.142;2023-05-13T02:04:26;102108.22;;;12.19;97.93
67840;BME280;54636;51.684;5.142;2023-05-13T02:06:51;102113.81;;;12.15;96.21
67840;BME280;54636;51.684;5.142;2023-05-13T02:09:17;102090.88;;;11.98;96.74
67840;BME280;54636;51.684;5.142;2023-05-13T02:11:44;102088.19;;;11.89;96.47
67840;BME280;54636;51.684;5.142;2023-05-13T02:14:09;102112.78;;;12.04;96.59
67840;BME280;54636;51.684;5.142;2023-05-13T02:16:35;102110.69;;;11.99;100.00
67840;BME280;54636;51.684;5.142;2023-05-13T02:19:00;102117.97;;;11.93;100.00
67840;BME280;54636;51.684;5.142;2023-05-13T02:21:25;102095.44;;;11.74;100.00
67840;BME280;54636;51.684;5.142;2023-05-13T02:23:51;102079.31;;;11.61;100.00
67840;BME280;54636;51.684;5.142;2023-05-13T02:26:17;102110.88;;;11.77;100.00
67840;BME280;54636;51.684;5.142;2023-05-13T02:28:43;102106.63;;;11.76;99.96
67840;BME280;54636;51.684;5.142;2023-05-13T02:31:08;102109.97;;;11.80;100.00
67840;BME280;54636;51.684;5.142;2023-05-13T02:33:34;102097.72;;;11.75;100.00
67840;BME280;54636;51.684;5.142;2023-05-13T02:35:59;102080.06;;;11.62;100.00
67840;BME280;54636;51.684;5.142;2023-05-13T02:38:24;102107.84;;;11.75;100.00
67840;BME280;54636;51.684;5.142;2023-05-13T02:40:50;102098.50;;;11.67;100.00
67840;BME280;54636;51.684;5.142;2023-05-13T02:43:15;102086.13;;;11.57;100.00
67840;BME280;54636;51.684;5.142;2023-05-13T02:45:41;102105.75;;;11.70;100.00
67840;BME280;54636;51.684;5.142;2023-05-13T02:48:07;102112.56;;;11.65;100.00
67840;BME280;54636;51.684;5.142;2023-05-13T02:50:32;102109.84;;;11.65;100.00
67840;BME280;54636;51.684;5.142;2023-05-13T02:52:57;102111.06;;;11.64;100.00
67840;BME280;54636;51.684;5.142;2023-05-13T02:55:23;102102.75;;;11.59;100.00
67840;BME280;54636;51.684;5.142;2023-05-13T02:57:48;102109.25;;;11.61;100.00
67840;BME280;54636;51.684;5.142;2023-05-13T03:00:14;102105.16;;;11.57;100.00
67840;BME280;54636;51.684;5.142;2023-05-13T03:02:40;102111.97;;;11.52;100.00
67840;BME280;54636;51.684;5.142;2023-05-13T03:05:06;102116.06;;;11.47;100.00
67840;BME280;54636;51.684;5.142;2023-05-13T03:07:32;102103.97;;;11.39;100.00
67840;BME280;54636;51.684;5.142;2023-05-13T03:09:58;102097.63;;;11.33;100.00
67840;BME280;54636;51.684;5.142;2023-05-13T03:12:23;102092.03;;;11.18;100.00
67840;BME280;54636;51.684;5.142;2023-05-13T03:14:48;102074.53;;;11.01;100.00
67840;BME280;54636;51.684;5.142;2023-05-13T03:17:14;102111.81;;;11.19;100.00
67840;BME280;54636;51.684;5.142;2023-05-13T03:19:39;102107.44;;;11.12;100.00
67840;BME280;54636;51.684;5.142;2023-05-13T03:22:05;102106.09;;;11.17;100.00
67840;BME280;54636;51.684;5.142;2023-05-13T03:24:31;102113.19;;;11.14;100.00
67840;BME280;54636;51.684;5.142;2023-05-13T03:26:56;102117.56;;;11.12;100.00
67840;BME280;54636;51.684;5.142;2023-05-13T03:29:22;102112.72;;;11.07;100.00
67840;BME280;54636;51.684;5.142;2023-05-13T03:31:48;102113.16;;;11.05;100.00
67840;BME280;54636;51.684;5.142;2023-05-13T03:34:13;102110.78;;;10.98;100.00
67840;BME280;54636;51.684;5.142;2023-05-13T03:36:39;102116.06;;;11.02;100.00
67840;BME280;54636;51.684;5.142;2023-05-13T03:39:04;102119.22;;;11.00;100.00
67840;BME280;54636;51.684;5.142;2023-05-13T03:41:30;102115.00;;;10.99;100.00
67840;BME280;54636;51.684;5.142;2023-05-13T03:43:55;102117.72;;;10.99;100.00
67840;BME280;54636;51.684;5.142;2023-05-13T03:46:20;102111.66;;;10.95;100.00
67840;BME280;54636;51.684;5.142;2023-05-13T03:48:47;102096.69;;;10.81;100.00
67840;BME280;54636;51.684;5.142;2023-05-13T03:51:12;102110.75;;;10.89;100.00
67840;BME280;54636;51.684;5.142;2023-05-13T03:53:38;102117.88;;;10.96;100.00
67840;BME280;54636;51.684;5.142;2023-05-13T03:56:03;102123.91;;;11.00;100.00
67840;BME280;54636;51.684;5.142;2023-05-13T03:58:29;102122.84;;;10.97;100.00
67840;BME280;54636;51.684;5.142;2023-05-13T04:00:54;102124.81;;;10.97;100.00
67840;BME280;54636;51.684;5.142;2023-05-13T04:03:21;102128.88;;;10.92;100.00
67840;BME280;54636;51.684;5.142;2023-05-13T04:05:47;102124.34;;;10.89;100.00
67840;BME280;54636;51.684;5.142;2023-05-13T04:08:12;102104.84;;;10.81;100.00
67840;BME280;54636;51.684;5.142;2023-05-13T04:10:38;102132.66;;;10.95;100.00
67840;BME280;54636;51.684;5.142;2023-05-13T04:13:04;102134.31;;;10.92;100.00
67840;BME280;54636;51.684;5.142;2023-05-13T04:15:29;102107.13;;;10.83;100.00
67840;BME280;54636;51.684;5.142;2023-05-13T04:17:58;102132.22;;;10.96;100.00
67840;BME280;54636;51.684;5.142;2023-05-13T04:20:24;102145.06;;;10.96;100.00
67840;BME280;54636;51.684;5.142;2023-05-13T04:22:50;102131.31;;;10.99;100.00
67840;BME280;54636;51.684;5.142;2023-05-13T04:25:18;102139.03;;;11.01;100.00
67840;BME280;54636;51.684;5.142;2023-05-13T04:27:43;102119.97;;;10.92;100.00
67840;BME280;54636;51.684;5.142;2023-05-13T04:30:11;102136.00;;;10.99;100.00
67840;BME280;54636;51.684;5.142;2023-05-13T04:32:37;102130.84;;;10.92;100.00
67840;BME280;54636;51.684;5.142;2023-05-13T04:35:03;102148.09;;;11.34;100.00
67840;BME280;54636;51.684;5.142;2023-05-13T04:37:29;102148.53;;;11.87;100.00
67840;BME280;54636;51.684;5.142;2023-05-13T04:39:54;102138.47;;;12.21;98.32
67840;BME280;54636;51.684;5.142;2023-05-13T04:42:20;102152.69;;;12.25;97.70
67840;BME280;54636;51.684;5.142;2023-05-13T04:44:45;102138.50;;;12.12;96.27
67840;BME280;54636;51.684;5.142;2023-05-13T04:47:10;102154.34;;;12.23;97.76
67840;BME280;54636;51.684;5.142;2023-05-13T04:49:36;102165.09;;;12.26;97.36
67840;BME280;54636;51.684;5.142;2023-05-13T04:52:02;102140.91;;;12.10;97.11
67840;BME280;54636;51.684;5.142;2023-05-13T04:54:28;102154.09;;;12.11;97.48
67840;BME280;54636;51.684;5.142;2023-05-13T04:56:54;102165.44;;;12.01;97.63
67840;BME280;54636;51.684;5.142;2023-05-13T04:59:19;102160.31;;;11.94;99.40
67840;BME280;54636;51.684;5.142;2023-05-13T05:01:45;102161.53;;;11.93;99.53
67840;BME280;54636;51.684;5.142;2023-05-13T05:04:11;102163.47;;;12.01;100.00
67840;BME280;54636;51.684;5.142;2023-05-13T05:06:36;102137.31;;;11.95;99.65
67840;BME280;54636;51.684;5.142;2023-05-13T05:09:02;102145.19;;;11.93;99.35
67840;BME280;54636;51.684;5.142;2023-05-13T05:11:27;102147.59;;;12.00;100.00
67840;BME280;54636;51.684;5.142;2023-05-13T05:13:53;102168.88;;;12.29;98.46
67840;BME280;54636;51.684;5.142;2023-05-13T05:16:18;102172.47;;;12.35;98.27
67840;BME280;54636;51.684;5.142;2023-05-13T05:18:44;102180.66;;;12.35;98.39
67840;BME280;54636;51.684;5.142;2023-05-13T05:21:09;102169.75;;;12.35;98.01
67840;BME280;54636;51.684;5.142;2023-05-13T05:23:35;102175.53;;;12.61;97.59
67840;BME280;54636;51.684;5.142;2023-05-13T05:26:00;102157.84;;;12.56;96.83
67840;BME280;54636;51.684;5.142;2023-05-13T05:28:26;102182.66;;;12.58;96.59
67840;BME280;54636;51.684;5.142;2023-05-13T05:30:52;102183.44;;;12.49;97.51
67840;BME280;54636;51.684;5.142;2023-05-13T05:33:17;102171.13;;;12.30;98.29
67840;BME280;54636;51.684;5.142;2023-05-13T05:35:43;102183.66;;;12.37;98.44
67840;BME280;54636;51.684;5.142;2023-05-13T05:38:09;102183.19;;;12.38;99.58
67840;BME280;54636;51.684;5.142;2023-05-13T05:40:39;102173.56;;;12.28;99.91
67840;BME280;54636;51.684;5.142;2023-05-13T05:43:04;102181.81;;;12.43;99.35
67840;BME280;54636;51.684;5.142;2023-05-13T05:45:30;102182.41;;;12.47;99.01
67840;BME280;54636;51.684;5.142;2023-05-13T05:47:55;102181.31;;;12.53;98.90
67840;BME280;54636;51.684;5.142;2023-05-13T05:50:21;102169.41;;;12.42;98.28
67840;BME280;54636;51.684;5.142;2023-05-13T05:52:47;102181.31;;;12.53;99.39
67840;BME280;54636;51.684;5.142;2023-05-13T05:55:13;102193.88;;;12.60;98.86
67840;BME280;54636;51.684;5.142;2023-05-13T05:57:38;102186.91;;;12.59;98.78
67840;BME280;54636;51.684;5.142;2023-05-13T06:00:04;102192.06;;;12.57;98.62
67840;BME280;54636;51.684;5.142;2023-05-13T06:02:30;102129.84;;;12.23;98.77
67840;BME280;54636;51.684;5.142;2023-05-13T06:04:55;102181.94;;;12.48;99.48
67840;BME280;54636;51.684;5.142;2023-05-13T06:07:21;102143.13;;;12.30;99.47
67840;BME280;54636;51.684;5.142;2023-05-13T06:09:46;102174.50;;;12.58;99.97
67840;BME280;54636;51.684;5.142;2023-05-13T06:12:11;102196.34;;;12.82;99.73
67840;BME280;54636;51.684;5.142;2023-05-13T06:14:37;102194.16;;;12.95;99.59
67840;BME280;54636;51.684;5.142;2023-05-13T06:17:02;102186.59;;;13.14;97.46
67840;BME280;54636;51.684;5.142;2023-05-13T06:19:28;102202.41;;;13.34;97.66
67840;BME280;54636;51.684;5.142;2023-05-13T06:21:53;102195.50;;;13.47;95.90
67840;BME280;54636;51.684;5.142;2023-05-13T06:24:18;102197.75;;;13.49;94.43
67840;BME280;54636;51.684;5.142;2023-05-13T06:26:44;102193.22;;;13.46;94.32
67840;BME280;54636;51.684;5.142;2023-05-13T06:29:09;102171.28;;;13.40;93.01
67840;BME280;54636;51.684;5.142;2023-05-13T06:31:35;102210.69;;;13.78;93.82
67840;BME280;54636;51.684;5.142;2023-05-13T06:34:01;102175.75;;;13.82;93.54
67840;BME280;54636;51.684;5.142;2023-05-13T06:36:26;102181.16;;;14.06;93.12
67840;BME280;54636;51.684;5.142;2023-05-13T06:38:52;102177.94;;;14.07;90.92
67840;BME280;54636;51.684;5.142;2023-05-13T06:41:17;102203.28;;;14.08;90.44
67840;BME280;54636;51.684;5.142;2023-05-13T06:43:43;102175.69;;;13.91;93.25
67840;BME280;54636;51.684;5.142;2023-05-13T06:46:10;102200.00;;;14.04;93.53
67840;BME280;54636;51.684;5.142;2023-05-13T06:48:36;102203.56;;;14.10;92.50
67840;BME280;54636;51.684;5.142;2023-05-13T06:51:01;102163.91;;;14.00;90.99
67840;BME280;54636;51.684;5.142;2023-05-13T06:53:26;102206.78;;;14.88;89.81
67840;BME280;54636;51.684;5.142;2023-05-13T06:55:52;102203.50;;;15.65;84.09
67840;BME280;54636;51.684;5.142;2023-05-13T06:58:17;102200.31;;;16.24;80.53
67840;BME280;54636;51.684;5.142;2023-05-13T07:00:42;102204.78;;;16.95;75.87
67840;BME280;54636;51.684;5.142;2023-05-13T07:03:10;102208.44;;;17.29;73.72
67840;BME280;54636;51.684;5.142;2023-05-13T07:05:36;102224.72;;;17.44;73.41
67840;BME280;54636;51.684;5.142;2023-05-13T07:08:02;102191.25;;;17.40;71.89
67840;BME280;54636;51.684;5.142;2023-05-13T07:10:32;102214.81;;;17.69;71.33
67840;BME280;54636;51.684;5.142;2023-05-13T07:12:58;102203.00;;;17.46;69.83
67840;BME280;54636;51.684;5.142;2023-05-13T07:15:24;102192.91;;;17.15;71.24
67840;BME280;54636;51.684;5.142;2023-05-13T07:17:49;102204.31;;;17.02;72.55
67840;BME280;54636;51.684;5.142;2023-05-13T07:20:14;102205.75;;;16.92;74.44
67840;BME280;54636;51.684;5.142;2023-05-13T07:22:40;102196.75;;;16.81;73.62
67840;BME280;54636;51.684;5.142;2023-05-13T07:25:06;102199.44;;;16.43;74.93
67840;BME280;54636;51.684;5.142;2023-05-13T07:27:31;102202.66;;;16.05;77.33
67840;BME280;54636;51.684;5.142;2023-05-13T07:29:56;102201.31;;;15.95;80.68
67840;BME280;54636;51.684;5.142;2023-05-13T07:32:22;102183.47;;;15.79;79.57
67840;BME280;54636;51.684;5.142;2023-05-13T07:34:47;102201.19;;;15.84;81.33
67840;BME280;54636;51.684;5.142;2023-05-13T07:37:12;102192.72;;;15.81;81.30
67840;BME280;54636;51.684;5.142;2023-05-13T07:39:38;102199.47;;;15.86;81.83
67840;BME280;54636;51.684;5.142;2023-05-13T07:42:04;102212.00;;;15.93;83.79
67840;BME280;54636;51.684;5.142;2023-05-13T07:44:29;102197.81;;;15.94;80.93
67840;BME280;54636;51.684;5.142;2023-05-13T07:46:54;102195.78;;;15.89;81.15
67840;BME280;54636;51.684;5.142;2023-05-13T07:49:20;102205.50;;;15.90;79.62
67840;BME280;54636;51.684;5.142;2023-05-13T07:51:45;102204.91;;;15.80;80.50
67840;BME280;54636;51.684;5.142;2023-05-13T07:54:11;102182.34;;;15.65;81.36
67840;BME280;54636;51.684;5.142;2023-05-13T07:56:37;102184.09;;;15.68;80.20
67840;BME280;54636;51.684;5.142;2023-05-13T07:59:03;102212.44;;;15.86;81.04
67840;BME280;54636;51.684;5.142;2023-05-13T08:01:28;102214.25;;;15.94;81.83
67840;BME280;54636;51.684;5.142;2023-05-13T08:03:54;102198.66;;;16.06;84.27
67840;BME280;54636;51.684;5.142;2023-05-13T08:06:19;102184.84;;;16.21;81.23
67840;BME280;54636;51.684;5.142;2023-05-13T08:08:45;102208.03;;;16.57;83.55
67840;BME280;54636;51.684;5.142;2023-05-13T08:11:10;102207.72;;;16.81;82.29
67840;BME280;54636;51.684;5.142;2023-05-13T08:13:36;102210.75;;;16.88;78.58
67840;BME280;54636;51.684;5.142;2023-05-13T08:16:02;102206.50;;;16.93;79.66
67840;BME280;54636;51.684;5.142;2023-05-13T08:18:28;102161.00;;;16.69;76.29
67840;BME280;54636;51.684;5.142;2023-05-13T08:20:53;102166.81;;;16.83;76.68
67840;BME280;54636;51.684;5.142;2023-05-13T08:23:19;102203.13;;;17.15;76.52
67840;BME280;54636;51.684;5.142;2023-05-13T08:25:44;102185.38;;;17.04;76.23
67840;BME280;54636;51.684;5.142;2023-05-13T08:28:10;102200.00;;;17.44;79.14
67840;BME280;54636;51.684;5.142;2023-05-13T08:30:35;102191.50;;;17.42;75.13
67840;BME280;54636;51.684;5.142;2023-05-13T08:33:01;102206.78;;;17.54;75.04
67840;BME280;54636;51.684;5.142;2023-05-13T08:35:26;102197.78;;;17.59;75.03
67840;BME280;54636;51.684;5.142;2023-05-13T08:37:52;102204.09;;;17.76;74.27
67840;BME280;54636;51.684;5.142;2023-05-13T08:40:17;102208.63;;;17.91;74.70
67840;BME280;54636;51.684;5.142;2023-05-13T08:42:44;102210.63;;;18.07;75.15
67840;BME280;54636;51.684;5.142;2023-05-13T08:45:12;102216.63;;;18.28;74.71
67840;BME280;54636;51.684;5.142;2023-05-13T08:47:57;102203.09;;;18.41;70.77
67840;BME280;54636;51.684;5.142;2023-05-13T08:50:23;102187.84;;;18.29;69.54
67840;BME280;54636;51.684;5.142;2023-05-13T08:52:51;102200.59;;;18.49;70.09
67840;BME280;54636;51.684;5.142;2023-05-13T08:55:17;102212.13;;;18.64;68.77
67840;BME280;54636;51.684;5.142;2023-05-13T08:57:44;102199.56;;;18.80;70.44
67840;BME280;54636;51.684;5.142;2023-05-13T09:00:10;102187.56;;;18.83;68.54
67840;BME280;54636;51.684;5.142;2023-05-13T09:02:35;102201.22;;;19.11;68.63
67840;BME280;54636;51.684;5.142;2023-05-13T09:05:05;102188.66;;;19.21;67.01
67840;BME280;54636;51.684;5.142;2023-05-13T09:07:34;102206.34;;;19.36;66.47
67840;BME280;54636;51.684;5.142;2023-05-13T09:10:01;102198.09;;;19.36;64.81
67840;BME280;54636;51.684;5.142;2023-05-13T09:12:49;102200.38;;;19.32;63.59
67840;BME280;54636;51.684;5.142;2023-05-13T09:15:19;102192.38;;;19.29;65.41
67840;BME280;54636;51.684;5.142;2023-05-13T09:17:54;102192.06;;;19.38;65.14
67840;BME280;54636;51.684;5.142;2023-05-13T09:20:21;102192.31;;;19.40;64.18
67840;BME280;54636;51.684;5.142;2023-05-13T09:22:51;102180.75;;;19.47;66.35
67840;BME280;54636;51.684;5.142;2023-05-13T09:25:19;102200.38;;;19.79;64.72
67840;BME280;54636;51.684;5.142;2023-05-13T09:27:50;102203.31;;;19.87;64.18
67840;BME280;54636;51.684;5.142;2023-05-13T09:30:15;102201.28;;;19.93;64.54
67840;BME280;54636;51.684;5.142;2023-05-13T09:32:41;102179.25;;;19.87;60.69
67840;BME280;54636;51.684;5.142;2023-05-13T09:35:08;102192.22;;;19.98;58.76
67840;BME280;54636;51.684;5.142;2023-05-13T09:37:34;102170.94;;;19.93;61.36
67840;BME280;54636;51.684;5.142;2023-05-13T09:40:00;102175.09;;;20.05;61.46
67840;BME280;54636;51.684;5.142;2023-05-13T09:42:26;102170.97;;;20.17;60.89
67840;BME280;54636;51.684;5.142;2023-05-13T09:44:52;102195.47;;;20.26;60.27
67840;BME280;54636;51.684;5.142;2023-05-13T09:47:17;102193.69;;;20.29;61.57
67840;BME280;54636;51.684;5.142;2023-05-13T09:49:44;102187.94;;;20.27;60.88
67840;BME280;54636;51.684;5.142;2023-05-13T09:52:10;102192.25;;;20.22;60.55
67840;BME280;54636;51.684;5.142;2023-05-13T09:54:38;102180.47;;;20.22;59.35
67840;BME280;54636;51.684;5.142;2023-05-13T09:57:04;102201.41;;;20.36;59.02
67840;BME280;54636;51.684;5.142;2023-05-13T09:59:33;102187.59;;;20.36;57.49
67840;BME280;54636;51.684;5.142;2023-05-13T10:02:07;102192.59;;;20.43;59.54
67840;BME280;54636;51.684;5.142;2023-05-13T10:04:33;102191.56;;;20.70;60.91
67840;BME280;54636;51.684;5.142;2023-05-13T10:07:01;102179.38;;;21.03;61.78
67840;BME280;54636;51.684;5.142;2023-05-13T10:09:29;102176.53;;;21.09;56.95
67840;BME280;54636;51.684;5.142;2023-05-13T10:11:58;102180.19;;;21.17;58.43
67840;BME280;54636;51.684;5.142;2023-05-13T10:14:26;102169.31;;;21.25;56.21
67840;BME280;54636;51.684;5.142;2023-05-13T10:16:52;102182.41;;;21.24;57.03
67840;BME280;54636;51.684;5.142;2023-05-13T10:19:18;102175.19;;;21.16;57.44
67840;BME280;54636;51.684;5.142;2023-05-13T10:21:45;102171.78;;;21.28;54.70
67840;BME280;54636;51.684;5.142;2023-05-13T10:24:12;102168.22;;;21.33;53.28
67840;BME280;54636;51.684;5.142;2023-05-13T10:26:38;102165.22;;;21.31;55.50
67840;BME280;54636;51.684;5.142;2023-05-13T10:29:05;102164.78;;;21.27;54.95
67840;BME280;54636;51.684;5.142;2023-05-13T10:31:33;102168.50;;;21.30;54.13
67840;BME280;54636;51.684;5.142;2023-05-13T10:33:59;102153.50;;;21.25;54.38
67840;BME280;54636;51.684;5.142;2023-05-13T10:36:46;102164.84;;;21.22;54.60
67840;BME280;54636;51.684;5.142;2023-05-13T10:39:48;102171.34;;;21.24;54.98
67840;BME280;54636;51.684;5.142;2023-05-13T10:42:35;102158.88;;;21.36;54.02
67840;BME280;54636;51.684;5.142;2023-05-13T10:45:03;102161.22;;;21.46;51.41
67840;BME280;54636;51.684;5.142;2023-05-13T10:47:31;102141.88;;;21.46;53.69
67840;BME280;54636;51.684;5.142;2023-05-13T10:49:57;102141.88;;;21.46;54.35
67840;BME280;54636;51.684;5.142;2023-05-13T10:52:48;102161.94;;;21.65;54.23
67840;BME280;54636;51.684;5.142;2023-05-13T10:55:17;102153.88;;;21.67;51.00
67840;BME280;54636;51.684;5.142;2023-05-13T10:58:02;102158.66;;;21.66;51.46
67840;BME280;54636;51.684;5.142;2023-05-13T11:00:32;102155.91;;;21.66;51.10
67840;BME280;54636;51.684;5.142;2023-05-13T11:05:44;102162.00;;;21.78;49.53
67840;BME280;54636;51.684;5.142;2023-05-13T11:08:31;102151.78;;;21.73;49.71
67840;BME280;54636;51.684;5.142;2023-05-13T11:10:56;102165.44;;;21.84;50.07
67840;BME280;54636;51.684;5.142;2023-05-13T11:13:22;102160.03;;;21.92;49.56
67840;BME280;54636;51.684;5.142;2023-05-13T11:15:52;102134.28;;;21.97;50.62
67840;BME280;54636;51.684;5.142;2023-05-13T11:18:18;102155.00;;;22.09;49.21
67840;BME280;54636;51.684;5.142;2023-05-13T11:20:46;102151.66;;;22.11;48.03
67840;BME280;54636;51.684;5.142;2023-05-13T11:23:16;102136.53;;;21.98;49.68
67840;BME280;54636;51.684;5.142;2023-05-13T11:25:43;102136.91;;;22.08;49.04
67840;BME280;54636;51.684;5.142;2023-05-13T11:28:13;102137.75;;;22.03;48.53
67840;BME280;54636;51.684;5.142;2023-05-13T11:30:39;102132.22;;;22.03;50.27
67840;BME280;54636;51.684;5.142;2023-05-13T11:33:04;102139.13;;;22.23;46.98
67840;BME280;54636;51.684;5.142;2023-05-13T11:35:36;102114.63;;;22.14;47.40
67840;BME280;54636;51.684;5.142;2023-05-13T11:38:02;102124.66;;;22.43;48.45
67840;BME280;54636;51.684;5.142;2023-05-13T11:40:33;102132.13;;;22.48;47.78
67840;BME280;54636;51.684;5.142;2023-05-13T11:43:00;102124.66;;;22.43;46.27
67840;BME280;54636;51.684;5.142;2023-05-13T11:45:26;102127.31;;;22.49;48.97
67840;BME280;54636;51.684;5.142;2023-05-13T11:47:53;102121.25;;;22.63;49.01
67840;BME280;54636;51.684;5.142;2023-05-13T11:52:50;102119.94;;;22.91;47.75
67840;BME280;54636;51.684;5.142;2023-05-13T11:55:30;102126.19;;;23.05;48.75
67840;BME280;54636;51.684;5.142;2023-05-13T11:57:57;102120.00;;;23.12;44.43
67840;BME280;54636;51.684;5.142;2023-05-13T12:00:32;102118.63;;;23.05;44.30
67840;BME280;54636;51.684;5.142;2023-05-13T12:03:00;102101.28;;;22.91;47.27
67840;BME280;54636;51.684;5.142;2023-05-13T12:05:25;102111.00;;;22.85;47.61
67840;BME280;54636;51.684;5.142;2023-05-13T12:07:53;102119.06;;;22.96;47.55
67840;BME280;54636;51.684;5.142;2023-05-13T12:10:20;102097.41;;;23.08;45.95
67840;BME280;54636;51.684;5.142;2023-05-13T12:12:45;102110.31;;;23.05;44.60
67840;BME280;54636;51.684;5.142;2023-05-13T12:15:13;102118.00;;;22.99;44.47
67840;BME280;54636;51.684;5.142;2023-05-13T12:17:40;102109.38;;;22.89;42.51
67840;BME280;54636;51.684;5.142;2023-05-13T12:22:33;102110.59;;;23.15;43.99
67840;BME280;54636;51.684;5.142;2023-05-13T12:24:58;102083.72;;;23.23;41.47
67840;BME280;54636;51.684;5.142;2023-05-13T12:27:26;102091.97;;;23.36;41.09
67840;BME280;54636;51.684;5.142;2023-05-13T12:29:55;102090.41;;;23.48;41.28
67840;BME280;54636;51.684;5.142;2023-05-13T12:32:23;102086.44;;;23.57;41.53
67840;BME280;54636;51.684;5.142;2023-05-13T12:34:49;102097.88;;;23.74;42.74
67840;BME280;54636;51.684;5.142;2023-05-13T12:37:15;102106.00;;;23.72;42.12
67840;BME280;54636;51.684;5.142;2023-05-13T12:39:41;102088.16;;;23.47;43.09
67840;BME280;54636;51.684;5.142;2023-05-13T12:42:14;102081.75;;;23.31;44.63
67840;BME280;54636;51.684;5.142;2023-05-13T12:44:41;102107.75;;;23.07;42.88
67840;BME280;54636;51.684;5.142;2023-05-13T12:47:09;102078.81;;;22.82;43.72
67840;BME280;54636;51.684;5.142;2023-05-13T12:49:53;102087.44;;;22.78;44.22
67840;BME280;54636;51.684;5.142;2023-05-13T12:52:19;102086.00;;;22.64;41.89
67840;BME280;54636;51.684;5.142;2023-05-13T12:54:45;102072.69;;;22.62;42.14
67840;BME280;54636;51.684;5.142;2023-05-13T12:57:11;102062.03;;;23.00;42.33
67840;BME280;54636;51.684;5.142;2023-05-13T12:59:36;102079.06;;;23.59;40.46
67840;BME280;54636;51.684;5.142;2023-05-13T13:02:02;102078.28;;;24.01;40.82